Weather History for PAWG - March, 2014

Change the Weather History Date:

Sunday, March 30, 2014

  Actual Average Record
Temperature  
Mean Temperature 42 °F -  
Max Temperature 50 °F 45 °F 54 °F (1957)
Min Temperature 35 °F 33 °F 22 °F (1963)
Degree Days  
Heating Degree Days 22    
Moisture  
Dew Point 26 °F    
Average Humidity 56    
Maximum Humidity 70    
Minimum Humidity 34    
Precipitation  
Precipitation 0.00 in - - ()
Sea Level Pressure  
Sea Level Pressure 29.85 in    
Wind  
Wind Speed 6 mph (East)    
Max Wind Speed 8 mph    
Max Gust Speed -    
Visibility 10 miles    
Events      
Averages and records for this station are not official NWS values.
T = Trace of Precipitation, MM = Missing Value Source: NWS Daily Summary

Daily Weather History Graph

Daily Weather History Graph

Search for Another Location

Airport or City:

Trip Planner

Search our weather history database for the weather conditions in past years. The results will help you decide how hot, cold, wet, or windy it might be!

Date:

Astronomy

Mar. 30, 2014 Rise Set
Actual Time 6:24 AM AKDT 7:24 PM AKDT
Civil Twilight 5:46 AM AKDT 8:03 PM AKDT
Nautical Twilight 4:59 AM AKDT 8:50 PM AKDT
Astronomical Twilight 4:07 AM AKDT 9:42 PM AKDT
Moon 6:13 AM AKDT (3/30) 7:52 PM AKDT (3/30)
Length of Visible Light 14h 17m
Length of Day
13h 00m
New Moon, 0% of the Moon is Illuminated
Mar 30
New Moon
Apr 7
First Quarter
Apr 14
Full
Apr 21
Last Quarter
Apr 28
New

Hourly Weather History & Observations

Time (AKDT) Temp. Windchill Dew Point Humidity Pressure Visibility Wind Dir Wind Speed Gust Speed Precip Events Conditions
12:16 AM 35.6 °F 30.7 °F 24.8 °F 65% 29.72 in 10.0 mi SE 5.8 mph - N/A   Clear
12:36 AM 35.6 °F 29.9 °F 26.6 °F 70% 29.72 in 10.0 mi ESE 6.9 mph - N/A   Scattered Clouds
12:56 AM 37.4 °F 32.8 °F 26.6 °F 65% 29.73 in 10.0 mi SE 5.8 mph - N/A   Scattered Clouds
1:16 AM 35.6 °F 32.8 °F 26.6 °F 70% 29.73 in 10.0 mi SE 3.5 mph - N/A   Clear
1:36 AM 35.6 °F 30.7 °F 26.6 °F 70% 29.73 in 10.0 mi ESE 5.8 mph - N/A   Clear
1:56 AM 35.6 °F 30.7 °F 26.6 °F 70% 29.74 in 10.0 mi SE 5.8 mph - N/A   Clear
2:16 AM 35.6 °F 29.2 °F 24.8 °F 65% 29.74 in 10.0 mi SE 8.1 mph - N/A   Clear
2:36 AM 35.6 °F 31.7 °F 24.8 °F 65% 29.74 in 10.0 mi ESE 4.6 mph - N/A   Clear
2:56 AM 35.6 °F 29.9 °F 26.6 °F 70% 29.75 in 10.0 mi ESE 6.9 mph - N/A   Clear
3:16 AM 35.6 °F 29.2 °F 26.6 °F 70% 29.75 in 10.0 mi East 8.1 mph - N/A   Clear
3:36 AM 35.6 °F 30.7 °F 26.6 °F 70% 29.75 in 10.0 mi ESE 5.8 mph - N/A   Clear
3:56 AM 35.6 °F 31.7 °F 26.6 °F 70% 29.76 in 10.0 mi ESE 4.6 mph - N/A   Clear
4:16 AM 35.6 °F 31.7 °F 26.6 °F 70% 29.76 in 10.0 mi ESE 4.6 mph - N/A   Clear
4:36 AM 35.6 °F 32.8 °F 26.6 °F 70% 29.76 in 10.0 mi East 3.5 mph - N/A   Clear
4:56 AM 35.6 °F 29.2 °F 26.6 °F 70% 29.76 in 10.0 mi ESE 8.1 mph - N/A   Clear
5:16 AM 35.6 °F 29.9 °F 24.8 °F 65% 29.77 in 10.0 mi ESE 6.9 mph - N/A   Clear
5:36 AM 35.6 °F 30.7 °F 26.6 °F 70% 29.77 in 10.0 mi East 5.8 mph - N/A   Clear
5:56 AM 35.6 °F 30.7 °F 26.6 °F 70% 29.77 in 10.0 mi ESE 5.8 mph - N/A   Clear
6:16 AM 35.6 °F 29.9 °F 26.6 °F 70% 29.78 in 10.0 mi ESE 6.9 mph - N/A   Clear
6:36 AM 35.6 °F 32.8 °F 24.8 °F 65% 29.79 in 10.0 mi ESE 3.5 mph - N/A   Clear
6:56 AM 35.6 °F 29.9 °F 26.6 °F 70% 29.79 in 10.0 mi East 6.9 mph - N/A   Partly Cloudy
7:16 AM 35.6 °F 29.2 °F 26.6 °F 70% 29.79 in 10.0 mi East 8.1 mph - N/A   Partly Cloudy
7:36 AM 37.4 °F 32.1 °F 28.4 °F 70% 29.80 in 10.0 mi East 6.9 mph - N/A   Partly Cloudy
7:56 AM 37.4 °F 31.4 °F 26.6 °F 65% 29.80 in 10.0 mi ESE 8.1 mph - N/A   Partly Cloudy
8:16 AM 37.4 °F 32.1 °F 28.4 °F 70% 29.80 in 10.0 mi East 6.9 mph - N/A   Partly Cloudy
8:36 AM 39.2 °F 33.6 °F 28.4 °F 65% 29.80 in 10.0 mi East 8.1 mph - N/A   Partly Cloudy
8:56 AM 39.2 °F 34.2 °F 28.4 °F 65% 29.81 in 10.0 mi East 6.9 mph - N/A   Partly Cloudy
9:16 AM 39.2 °F 34.2 °F 26.6 °F 61% 29.81 in 10.0 mi East 6.9 mph - N/A   Partly Cloudy
9:36 AM 39.2 °F 35.9 °F 26.6 °F 61% 29.82 in 10.0 mi NE 4.6 mph - N/A   Partly Cloudy
9:56 AM 41.0 °F 39.0 °F 26.6 °F 57% 29.82 in 10.0 mi NNE 3.5 mph - N/A   Clear
10:16 AM 42.8 °F 40.1 °F 26.6 °F 53% 29.83 in 10.0 mi North 4.6 mph - N/A   Clear
10:36 AM 42.8 °F 40.1 °F 28.4 °F 57% 29.83 in 10.0 mi NNW 4.6 mph - N/A   Clear
10:56 AM 42.8 °F 39.3 °F 28.4 °F 57% 29.83 in 10.0 mi NNW 5.8 mph - N/A   Clear
11:16 AM 42.8 °F 39.3 °F 28.4 °F 57% 29.84 in 10.0 mi NW 5.8 mph - N/A   Clear
11:36 AM 42.8 °F 40.1 °F 26.6 °F 53% 29.84 in 10.0 mi NW 4.6 mph - N/A   Clear
11:56 AM 44.6 °F 42.2 °F 26.6 °F 49% 29.85 in 10.0 mi NNW 4.6 mph - N/A   Clear
12:16 PM 46.4 °F 45.2 °F 26.6 °F 46% 29.85 in 10.0 mi North 3.5 mph - N/A   Clear
12:36 PM 46.4 °F - 24.8 °F 43% 29.85 in 10.0 mi Calm Calm - N/A   Clear
12:56 PM 48.2 °F - 24.8 °F 40% 29.86 in 10.0 mi North 3.5 mph - N/A   Clear
1:16 PM 48.2 °F - 24.8 °F 40% 29.86 in 10.0 mi North 4.6 mph - N/A   Clear
1:36 PM 48.2 °F - 26.6 °F 43% 29.86 in 10.0 mi NNW 6.9 mph - N/A   Clear
1:56 PM 48.2 °F - 28.4 °F 46% 29.86 in 10.0 mi North 4.6 mph - N/A   Clear
2:16 PM 48.2 °F - 26.6 °F 43% 29.86 in 10.0 mi North 4.6 mph - N/A   Clear
2:36 PM 48.2 °F - 28.4 °F 46% 29.87 in 10.0 mi NNW 4.6 mph - N/A   Clear
2:56 PM 50.0 °F - 26.6 °F 40% 29.87 in 10.0 mi NNW 6.9 mph - N/A   Clear
3:16 PM 48.2 °F - 26.6 °F 43% 29.87 in 10.0 mi North 6.9 mph - N/A   Clear
3:36 PM 50.0 °F - 26.6 °F 40% 29.88 in 10.0 mi North 5.8 mph - N/A   Clear
3:56 PM 48.2 °F - 26.6 °F 43% 29.88 in 10.0 mi North 6.9 mph - N/A   Clear
4:16 PM 48.2 °F - 26.6 °F 43% 29.88 in 10.0 mi North 4.6 mph - N/A   Clear
4:36 PM 48.2 °F - 26.6 °F 43% 29.88 in 10.0 mi North 4.6 mph - N/A   Clear
4:56 PM 48.2 °F - 28.4 °F 46% 29.88 in 10.0 mi North 4.6 mph - N/A   Clear
5:16 PM 48.2 °F - 28.4 °F 46% 29.89 in 10.0 mi Calm Calm - N/A   Clear
5:36 PM 48.2 °F - 28.4 °F 46% 29.90 in 10.0 mi Calm Calm - N/A   Clear
5:56 PM 48.2 °F - 26.6 °F 43% 29.90 in 10.0 mi Calm Calm - N/A   Clear
6:16 PM 48.2 °F - 21.2 °F 34% 29.90 in 10.0 mi South 6.9 mph - N/A   Clear
6:36 PM 48.2 °F - 23.0 °F 37% 29.91 in 10.0 mi SSE 5.8 mph - N/A   Clear
6:56 PM 48.2 °F - 21.2 °F 34% 29.92 in 10.0 mi SE 4.6 mph - N/A   Partly Cloudy
7:16 PM 46.4 °F - 21.2 °F 37% 29.92 in 10.0 mi Calm Calm - N/A   Partly Cloudy
7:36 PM 44.6 °F 40.7 °F 21.2 °F 39% 29.93 in 10.0 mi SE 6.9 mph - N/A   Partly Cloudy
7:56 PM 44.6 °F 40.7 °F 21.2 °F 39% 29.93 in 10.0 mi SE 6.9 mph - N/A   Partly Cloudy
8:16 PM 44.6 °F 40.7 °F 21.2 °F 39% 29.94 in 10.0 mi SE 6.9 mph - N/A   Partly Cloudy
8:36 PM 42.8 °F 38.6 °F 24.8 °F 49% 29.95 in 10.0 mi SE 6.9 mph - N/A   Partly Cloudy
8:56 PM 42.8 °F 38.6 °F 24.8 °F 49% 29.96 in 10.0 mi ESE 6.9 mph - N/A   Partly Cloudy
9:16 PM 41.0 °F 36.4 °F 24.8 °F 53% 29.96 in 10.0 mi ESE 6.9 mph - N/A   Partly Cloudy
9:36 PM 39.2 °F 35.0 °F 24.8 °F 56% 29.97 in 10.0 mi SE 5.8 mph - N/A   Partly Cloudy
9:56 PM 39.2 °F 34.2 °F 26.6 °F 61% 29.97 in 10.0 mi SE 6.9 mph - N/A   Overcast
10:16 PM 39.2 °F 37.0 °F 28.4 °F 65% 29.98 in 10.0 mi East 3.5 mph - N/A   Overcast
10:36 PM 39.2 °F 37.0 °F 26.6 °F 61% 29.98 in 10.0 mi ESE 3.5 mph - N/A   Overcast
10:56 PM 39.2 °F 35.9 °F 26.6 °F 61% 29.99 in 10.0 mi SE 4.6 mph - N/A   Overcast
11:16 PM 39.2 °F 35.0 °F 28.4 °F 65% 30.00 in 10.0 mi SE 5.8 mph - N/A   Overcast
11:36 PM 39.2 °F - 26.6 °F 61% 30.01 in 10.0 mi Calm Calm - N/A   Overcast
11:56 PM 39.2 °F 37.0 °F 24.8 °F 56% 30.02 in 10.0 mi NNW 3.5 mph - N/A   Overcast